sensor_id;sensor_type;location;lat;lon;timestamp;pressure;altitude;pressure_sealevel;temperature;humidity
75497;BME280;64074;47.540;19.072;2023-05-14T00:01:03;101060.16;;;12.92;71.51
75497;BME280;64074;47.540;19.072;2023-05-14T00:10:02;101062.25;;;13.19;70.91
75497;BME280;64074;47.540;19.072;2023-05-14T00:13:17;101051.13;;;13.15;70.80
75497;BME280;64074;47.540;19.072;2023-05-14T00:17:04;101055.91;;;13.23;70.36
75497;BME280;64074;47.540;19.072;2023-05-14T00:20:29;101052.44;;;13.37;70.05
75497;BME280;64074;47.540;19.072;2023-05-14T00:23:44;101046.84;;;13.28;70.22
75497;BME280;64074;47.540;19.072;2023-05-14T00:27:32;101055.00;;;13.47;70.01
75497;BME280;64074;47.540;19.072;2023-05-14T00:30:51;101046.78;;;13.33;70.18
75497;BME280;64074;47.540;19.072;2023-05-14T00:33:56;101045.50;;;13.07;70.92
75497;BME280;64074;47.540;19.072;2023-05-14T00:37:06;101052.59;;;13.27;69.74
75497;BME280;64074;47.540;19.072;2023-05-14T00:40:28;101048.03;;;13.41;68.77
75497;BME280;64074;47.540;19.072;2023-05-14T00:43:46;101043.00;;;13.48;68.70
75497;BME280;64074;47.540;19.072;2023-05-14T00:46:50;101047.25;;;13.54;67.83
75497;BME280;64074;47.540;19.072;2023-05-14T00:50:02;101042.03;;;13.58;67.71
75497;BME280;64074;47.540;19.072;2023-05-14T00:53:26;101040.50;;;13.51;68.24
75497;BME280;64074;47.540;19.072;2023-05-14T00:56:45;101036.97;;;13.51;68.33
75497;BME280;64074;47.540;19.072;2023-05-14T01:00:38;101038.78;;;13.55;68.27
75497;BME280;64074;47.540;19.072;2023-05-14T01:03:49;101028.41;;;13.58;67.41
75497;BME280;64074;47.540;19.072;2023-05-14T01:10:27;101016.59;;;13.62;67.31
75497;BME280;64074;47.540;19.072;2023-05-14T01:17:11;101014.16;;;13.61;66.42
75497;BME280;64074;47.540;19.072;2023-05-14T01:20:17;101008.22;;;13.59;66.80
75497;BME280;64074;47.540;19.072;2023-05-14T01:23:27;100996.34;;;13.68;66.36
75497;BME280;64074;47.540;19.072;2023-05-14T01:26:46;101001.34;;;13.61;66.47
75497;BME280;64074;47.540;19.072;2023-05-14T01:33:38;100995.06;;;13.47;67.63
75497;BME280;64074;47.540;19.072;2023-05-14T01:36:52;100992.78;;;13.54;67.36
75497;BME280;64074;47.540;19.072;2023-05-14T01:40:05;100993.56;;;13.54;68.45
75497;BME280;64074;47.540;19.072;2023-05-14T01:43:16;100989.34;;;13.62;67.53
75497;BME280;64074;47.540;19.072;2023-05-14T01:46:24;100978.38;;;13.67;67.33
75497;BME280;64074;47.540;19.072;2023-05-14T01:50:07;100981.91;;;13.68;67.81
75497;BME280;64074;47.540;19.072;2023-05-14T01:53:22;100977.72;;;13.57;67.42
75497;BME280;64074;47.540;19.072;2023-05-14T02:00:46;100958.75;;;13.51;68.48
75497;BME280;64074;47.540;19.072;2023-05-14T02:04:13;100950.94;;;13.31;69.17
75497;BME280;64074;47.540;19.072;2023-05-14T02:07:24;100950.44;;;13.10;69.40
75497;BME280;64074;47.540;19.072;2023-05-14T02:10:37;100949.72;;;13.05;69.89
75497;BME280;64074;47.540;19.072;2023-05-14T02:14:03;100944.47;;;13.08;69.56
75497;BME280;64074;47.540;19.072;2023-05-14T02:17:13;100945.59;;;13.07;69.37
75497;BME280;64074;47.540;19.072;2023-05-14T02:20:30;100935.94;;;13.15;69.33
75497;BME280;64074;47.540;19.072;2023-05-14T02:23:48;100941.09;;;13.16;69.02
75497;BME280;64074;47.540;19.072;2023-05-14T02:26:59;100935.09;;;13.19;69.50
75497;BME280;64074;47.540;19.072;2023-05-14T02:30:13;100939.63;;;13.24;68.87
75497;BME280;64074;47.540;19.072;2023-05-14T02:34:09;100943.06;;;13.30;68.33
75497;BME280;64074;47.540;19.072;2023-05-14T02:37:52;100943.56;;;13.32;68.35
75497;BME280;64074;47.540;19.072;2023-05-14T02:40:58;100936.66;;;13.39;67.97
75497;BME280;64074;47.540;19.072;2023-05-14T02:44:11;100932.59;;;13.37;68.36
75497;BME280;64074;47.540;19.072;2023-05-14T02:47:59;100933.41;;;13.37;68.82
75497;BME280;64074;47.540;19.072;2023-05-14T02:51:19;100937.47;;;13.40;68.47
75497;BME280;64074;47.540;19.072;2023-05-14T02:54:50;100933.41;;;13.37;67.88
75497;BME280;64074;47.540;19.072;2023-05-14T02:58:08;100935.16;;;13.47;67.40
75497;BME280;64074;47.540;19.072;2023-05-14T03:01:20;100931.63;;;13.46;67.41
75497;BME280;64074;47.540;19.072;2023-05-14T03:04:29;100932.00;;;13.40;67.79
75497;BME280;64074;47.540;19.072;2023-05-14T03:07:50;100926.78;;;13.43;67.62
75497;BME280;64074;47.540;19.072;2023-05-14T03:11:02;100924.84;;;13.44;67.53
75497;BME280;64074;47.540;19.072;2023-05-14T03:14:17;100919.78;;;13.37;67.40
75497;BME280;64074;47.540;19.072;2023-05-14T03:17:27;100919.41;;;13.44;67.91
75497;BME280;64074;47.540;19.072;2023-05-14T03:20:52;100920.69;;;13.33;66.79
75497;BME280;64074;47.540;19.072;2023-05-14T03:24:00;100920.81;;;13.41;67.40
75497;BME280;64074;47.540;19.072;2023-05-14T03:27:06;100922.03;;;13.49;66.48
75497;BME280;64074;47.540;19.072;2023-05-14T03:30:17;100922.88;;;13.63;65.79
75497;BME280;64074;47.540;19.072;2023-05-14T03:33:26;100923.38;;;13.65;65.30
75497;BME280;64074;47.540;19.072;2023-05-14T03:36:44;100920.63;;;13.51;65.52
75497;BME280;64074;47.540;19.072;2023-05-14T03:40:21;100928.59;;;13.62;66.17
75497;BME280;64074;47.540;19.072;2023-05-14T03:43:31;100921.88;;;13.73;65.30
75497;BME280;64074;47.540;19.072;2023-05-14T03:46:59;100933.06;;;13.85;65.33
75497;BME280;64074;47.540;19.072;2023-05-14T03:50:11;100923.88;;;13.67;64.84
75497;BME280;64074;47.540;19.072;2023-05-14T03:53:18;100930.75;;;13.78;64.98
75497;BME280;64074;47.540;19.072;2023-05-14T03:56:24;100927.41;;;13.81;65.03
75497;BME280;64074;47.540;19.072;2023-05-14T03:59:35;100919.56;;;13.94;64.43
75497;BME280;64074;47.540;19.072;2023-05-14T04:02:51;100912.88;;;13.86;64.62
75497;BME280;64074;47.540;19.072;2023-05-14T04:06:41;100918.56;;;13.90;64.59
75497;BME280;64074;47.540;19.072;2023-05-14T04:10:09;100913.69;;;13.86;64.91
75497;BME280;64074;47.540;19.072;2023-05-14T04:13:33;100920.94;;;13.77;64.50
75497;BME280;64074;47.540;19.072;2023-05-14T04:16:55;100919.53;;;13.80;64.89
75497;BME280;64074;47.540;19.072;2023-05-14T04:20:09;100909.44;;;13.80;64.72
75497;BME280;64074;47.540;19.072;2023-05-14T04:23:35;100909.25;;;13.91;64.23
75497;BME280;64074;47.540;19.072;2023-05-14T04:26:47;100910.06;;;13.91;65.19
75497;BME280;64074;47.540;19.072;2023-05-14T04:30:01;100904.31;;;13.93;64.00
75497;BME280;64074;47.540;19.072;2023-05-14T04:33:46;100905.13;;;13.93;64.02
75497;BME280;64074;47.540;19.072;2023-05-14T04:37:11;100893.78;;;14.00;63.56
75497;BME280;64074;47.540;19.072;2023-05-14T04:40:25;100903.28;;;14.02;63.74
75497;BME280;64074;47.540;19.072;2023-05-14T04:43:36;100896.28;;;14.10;63.00
75497;BME280;64074;47.540;19.072;2023-05-14T04:46:57;100899.16;;;13.91;63.01
75497;BME280;64074;47.540;19.072;2023-05-14T04:50:21;100906.81;;;14.03;64.15
75497;BME280;64074;47.540;19.072;2023-05-14T04:53:42;100905.19;;;14.02;64.25
75497;BME280;64074;47.540;19.072;2023-05-14T04:57:20;100897.94;;;13.97;64.13
75497;BME280;64074;47.540;19.072;2023-05-14T05:00:28;100900.16;;;13.95;63.82
75497;BME280;64074;47.540;19.072;2023-05-14T05:03:38;100889.66;;;13.75;63.25
75497;BME280;64074;47.540;19.072;2023-05-14T05:06:55;100900.25;;;14.04;63.46
75497;BME280;64074;47.540;19.072;2023-05-14T05:10:24;100890.84;;;14.10;62.45
75497;BME280;64074;47.540;19.072;2023-05-14T05:13:35;100895.50;;;13.96;63.11
75497;BME280;64074;47.540;19.072;2023-05-14T05:16:58;100889.16;;;13.86;63.83
75497;BME280;64074;47.540;19.072;2023-05-14T05:20:10;100893.19;;;13.75;63.28
75497;BME280;64074;47.540;19.072;2023-05-14T05:23:29;100885.13;;;13.98;63.57
75497;BME280;64074;47.540;19.072;2023-05-14T05:26:38;100882.19;;;13.94;63.26
75497;BME280;64074;47.540;19.072;2023-05-14T05:29:43;100882.38;;;13.84;63.37
75497;BME280;64074;47.540;19.072;2023-05-14T05:32:55;100876.13;;;13.56;63.33
75497;BME280;64074;47.540;19.072;2023-05-14T05:36:10;100891.38;;;13.84;64.29
75497;BME280;64074;47.540;19.072;2023-05-14T05:39:28;100884.50;;;13.87;63.60
75497;BME280;64074;47.540;19.072;2023-05-14T05:42:44;100887.22;;;14.01;64.70
75497;BME280;64074;47.540;19.072;2023-05-14T05:46:52;100886.19;;;14.10;62.79
75497;BME280;64074;47.540;19.072;2023-05-14T05:50:05;100880.22;;;14.22;63.20
75497;BME280;64074;47.540;19.072;2023-05-14T05:53:15;100888.63;;;14.12;63.76
75497;BME280;64074;47.540;19.072;2023-05-14T05:56:32;100878.47;;;13.90;63.38
75497;BME280;64074;47.540;19.072;2023-05-14T05:59:45;100886.00;;;14.07;62.82
75497;BME280;64074;47.540;19.072;2023-05-14T06:03:28;100890.34;;;14.08;63.33
75497;BME280;64074;47.540;19.072;2023-05-14T06:06:50;100886.91;;;14.16;62.62
75497;BME280;64074;47.540;19.072;2023-05-14T06:10:11;100890.66;;;14.20;63.31
75497;BME280;64074;47.540;19.072;2023-05-14T06:13:21;100895.91;;;13.75;63.97
75497;BME280;64074;47.540;19.072;2023-05-14T06:16:54;100901.66;;;14.01;63.81
75497;BME280;64074;47.540;19.072;2023-05-14T06:20:11;100896.59;;;14.22;62.50
75497;BME280;64074;47.540;19.072;2023-05-14T06:23:25;100900.63;;;14.25;62.75
75497;BME280;64074;47.540;19.072;2023-05-14T06:27:31;100885.00;;;14.03;63.20
75497;BME280;64074;47.540;19.072;2023-05-14T06:30:41;100894.53;;;14.41;64.65
75497;BME280;64074;47.540;19.072;2023-05-14T06:34:08;100898.81;;;14.20;64.22
75497;BME280;64074;47.540;19.072;2023-05-14T06:37:31;100896.91;;;14.07;64.37
75497;BME280;64074;47.540;19.072;2023-05-14T06:40:47;100893.50;;;14.01;65.37
75497;BME280;64074;47.540;19.072;2023-05-14T06:44:07;100885.63;;;14.00;66.00
75497;BME280;64074;47.540;19.072;2023-05-14T06:47:22;100888.84;;;14.15;65.55
75497;BME280;64074;47.540;19.072;2023-05-14T06:50:41;100881.53;;;14.11;66.05
75497;BME280;64074;47.540;19.072;2023-05-14T06:53:49;100887.41;;;14.18;66.79
75497;BME280;64074;47.540;19.072;2023-05-14T06:56:59;100871.56;;;14.20;66.28
75497;BME280;64074;47.540;19.072;2023-05-14T07:00:15;100875.03;;;14.48;65.85
75497;BME280;64074;47.540;19.072;2023-05-14T07:03:34;100865.75;;;14.35;65.12
75497;BME280;64074;47.540;19.072;2023-05-14T07:08:17;100858.59;;;14.84;65.10
75497;BME280;64074;47.540;19.072;2023-05-14T07:11:32;100851.72;;;14.87;64.95
75497;BME280;64074;47.540;19.072;2023-05-14T07:14:49;100860.44;;;14.89;64.60
75497;BME280;64074;47.540;19.072;2023-05-14T07:18:00;100857.38;;;15.13;63.59
75497;BME280;64074;47.540;19.072;2023-05-14T07:21:20;100835.00;;;15.11;62.20
75497;BME280;64074;47.540;19.072;2023-05-14T07:24:34;100847.69;;;14.62;63.46
75497;BME280;64074;47.540;19.072;2023-05-14T07:27:50;100846.69;;;14.80;63.76
75497;BME280;64074;47.540;19.072;2023-05-14T07:31:04;100848.09;;;14.69;62.71
75497;BME280;64074;47.540;19.072;2023-05-14T07:34:19;100838.63;;;14.97;62.53
75497;BME280;64074;47.540;19.072;2023-05-14T07:37:35;100835.75;;;15.33;62.03
75497;BME280;64074;47.540;19.072;2023-05-14T07:41:32;100831.81;;;15.48;60.98
75497;BME280;64074;47.540;19.072;2023-05-14T07:45:38;100833.81;;;15.34;62.82
75497;BME280;64074;47.540;19.072;2023-05-14T07:48:46;100832.94;;;15.56;61.82
75497;BME280;64074;47.540;19.072;2023-05-14T07:51:55;100829.91;;;15.57;62.15
75497;BME280;64074;47.540;19.072;2023-05-14T07:55:09;100817.66;;;15.94;61.47
75497;BME280;64074;47.540;19.072;2023-05-14T07:58:32;100825.88;;;15.55;61.77
75497;BME280;64074;47.540;19.072;2023-05-14T08:01:59;100811.13;;;15.16;62.18
75497;BME280;64074;47.540;19.072;2023-05-14T08:05:20;100809.59;;;15.41;61.99
75497;BME280;64074;47.540;19.072;2023-05-14T08:08:25;100803.59;;;14.91;62.47
75497;BME280;64074;47.540;19.072;2023-05-14T08:11:34;100796.84;;;14.88;63.11
75497;BME280;64074;47.540;19.072;2023-05-14T08:14:44;100802.13;;;15.16;63.33
75497;BME280;64074;47.540;19.072;2023-05-14T08:17:53;100793.63;;;15.26;63.19
75497;BME280;64074;47.540;19.072;2023-05-14T08:21:02;100788.84;;;15.00;63.31
75497;BME280;64074;47.540;19.072;2023-05-14T08:24:09;100785.84;;;15.11;63.15
75497;BME280;64074;47.540;19.072;2023-05-14T08:27:20;100784.53;;;15.08;64.33
75497;BME280;64074;47.540;19.072;2023-05-14T08:30:33;100782.22;;;15.24;64.06
75497;BME280;64074;47.540;19.072;2023-05-14T08:33:43;100777.56;;;15.24;65.25
75497;BME280;64074;47.540;19.072;2023-05-14T08:37:20;100770.84;;;14.99;64.46
75497;BME280;64074;47.540;19.072;2023-05-14T08:40:32;100768.94;;;15.00;64.98
75497;BME280;64074;47.540;19.072;2023-05-14T08:47:23;100760.03;;;15.17;64.93
75497;BME280;64074;47.540;19.072;2023-05-14T08:50:33;100753.22;;;15.05;66.14
75497;BME280;64074;47.540;19.072;2023-05-14T08:54:07;100741.44;;;14.88;65.15
75497;BME280;64074;47.540;19.072;2023-05-14T08:57:37;100743.91;;;15.06;65.40
75497;BME280;64074;47.540;19.072;2023-05-14T09:00:44;100746.28;;;14.99;66.10
75497;BME280;64074;47.540;19.072;2023-05-14T09:03:54;100748.91;;;14.82;65.46
75497;BME280;64074;47.540;19.072;2023-05-14T09:07:23;100749.16;;;14.94;66.66
75497;BME280;64074;47.540;19.072;2023-05-14T09:10:49;100754.91;;;15.24;65.75
75497;BME280;64074;47.540;19.072;2023-05-14T09:14:21;100755.88;;;15.28;66.55
75497;BME280;64074;47.540;19.072;2023-05-14T09:17:46;100747.66;;;15.28;67.31
75497;BME280;64074;47.540;19.072;2023-05-14T09:21:13;100744.06;;;15.10;65.30
75497;BME280;64074;47.540;19.072;2023-05-14T09:24:26;100738.59;;;15.10;66.19
75497;BME280;64074;47.540;19.072;2023-05-14T09:27:46;100740.97;;;15.43;65.74
75497;BME280;64074;47.540;19.072;2023-05-14T09:31:21;100733.38;;;15.31;65.19
75497;BME280;64074;47.540;19.072;2023-05-14T09:34:41;100729.66;;;15.18;65.78
75497;BME280;64074;47.540;19.072;2023-05-14T09:37:58;100726.94;;;15.27;65.91
75497;BME280;64074;47.540;19.072;2023-05-14T09:41:22;100728.00;;;15.08;66.08
75497;BME280;64074;47.540;19.072;2023-05-14T09:44:44;100724.06;;;15.32;65.92
75497;BME280;64074;47.540;19.072;2023-05-14T09:47:48;100723.28;;;15.40;66.09
75497;BME280;64074;47.540;19.072;2023-05-14T09:50:51;100708.50;;;15.50;66.78
75497;BME280;64074;47.540;19.072;2023-05-14T09:53:54;100702.38;;;15.35;65.46
75497;BME280;64074;47.540;19.072;2023-05-14T09:57:04;100703.59;;;15.78;67.20
75497;BME280;64074;47.540;19.072;2023-05-14T10:00:15;100712.69;;;15.56;66.44
75497;BME280;64074;47.540;19.072;2023-05-14T10:03:35;100711.56;;;15.39;65.88
75497;BME280;64074;47.540;19.072;2023-05-14T10:06:56;100700.63;;;15.57;67.47
75497;BME280;64074;47.540;19.072;2023-05-14T10:15:39;100671.38;;;15.40;69.49
75497;BME280;64074;47.540;19.072;2023-05-14T10:18:51;100660.78;;;15.56;68.20
75497;BME280;64074;47.540;19.072;2023-05-14T10:22:07;100647.59;;;15.58;68.16
75497;BME280;64074;47.540;19.072;2023-05-14T10:25:24;100632.16;;;16.05;67.56
75497;BME280;64074;47.540;19.072;2023-05-14T10:28:35;100617.94;;;16.29;67.37
75497;BME280;64074;47.540;19.072;2023-05-14T10:31:49;100609.41;;;16.30;65.95
75497;BME280;64074;47.540;19.072;2023-05-14T10:35:00;100621.47;;;16.29;67.67
75497;BME280;64074;47.540;19.072;2023-05-14T10:38:08;100627.25;;;16.37;67.48
75497;BME280;64074;47.540;19.072;2023-05-14T10:41:15;100645.50;;;16.07;66.13
75497;BME280;64074;47.540;19.072;2023-05-14T10:44:20;100635.38;;;16.07;66.56
75497;BME280;64074;47.540;19.072;2023-05-14T10:47:30;100635.69;;;16.06;66.80
75497;BME280;64074;47.540;19.072;2023-05-14T10:50:48;100636.81;;;16.13;67.59
75497;BME280;64074;47.540;19.072;2023-05-14T10:54:07;100623.28;;;16.08;65.91
75497;BME280;64074;47.540;19.072;2023-05-14T10:57:30;100621.44;;;15.65;68.58
75497;BME280;64074;47.540;19.072;2023-05-14T11:00:59;100627.16;;;16.16;66.56
75497;BME280;64074;47.540;19.072;2023-05-14T11:04:17;100622.00;;;16.14;66.96
75497;BME280;64074;47.540;19.072;2023-05-14T11:07:43;100634.34;;;16.38;66.27
75497;BME280;64074;47.540;19.072;2023-05-14T11:10:58;100629.03;;;16.33;67.31
75497;BME280;64074;47.540;19.072;2023-05-14T11:14:03;100629.94;;;15.90;68.52
75497;BME280;64074;47.540;19.072;2023-05-14T11:17:08;100627.78;;;16.21;68.14
75497;BME280;64074;47.540;19.072;2023-05-14T11:20:19;100611.34;;;16.30;68.09
75497;BME280;64074;47.540;19.072;2023-05-14T11:23:36;100599.91;;;16.37;67.72
75497;BME280;64074;47.540;19.072;2023-05-14T11:26:40;100600.72;;;16.28;67.31
75497;BME280;64074;47.540;19.072;2023-05-14T11:29:45;100608.13;;;16.28;67.92
75497;BME280;64074;47.540;19.072;2023-05-14T11:32:51;100599.47;;;16.17;68.84
75497;BME280;64074;47.540;19.072;2023-05-14T11:35:55;100600.28;;;16.09;70.73
75497;BME280;64074;47.540;19.072;2023-05-14T11:39:04;100606.25;;;16.03;69.65
75497;BME280;64074;47.540;19.072;2023-05-14T11:42:16;100599.16;;;16.10;69.71
75497;BME280;64074;47.540;19.072;2023-05-14T11:45:37;100597.94;;;15.73;72.17
75497;BME280;64074;47.540;19.072;2023-05-14T11:48:52;100604.03;;;15.96;71.27
75497;BME280;64074;47.540;19.072;2023-05-14T11:52:01;100600.97;;;15.54;71.75
75497;BME280;64074;47.540;19.072;2023-05-14T11:55:11;100598.25;;;15.46;70.26
75497;BME280;64074;47.540;19.072;2023-05-14T11:58:20;100593.72;;;15.32;71.61
75497;BME280;64074;47.540;19.072;2023-05-14T12:01:36;100588.59;;;15.31;72.29
75497;BME280;64074;47.540;19.072;2023-05-14T12:04:45;100578.63;;;15.35;72.96
75497;BME280;64074;47.540;19.072;2023-05-14T12:07:55;100574.91;;;15.57;72.63
75497;BME280;64074;47.540;19.072;2023-05-14T12:11:05;100574.28;;;15.34;71.73
75497;BME280;64074;47.540;19.072;2023-05-14T12:14:20;100571.56;;;15.60;71.65
75497;BME280;64074;47.540;19.072;2023-05-14T12:17:31;100557.28;;;15.63;71.05
75497;BME280;64074;47.540;19.072;2023-05-14T12:20:35;100554.53;;;15.37;71.83
75497;BME280;64074;47.540;19.072;2023-05-14T12:23:45;100557.41;;;15.49;71.73
75497;BME280;64074;47.540;19.072;2023-05-14T12:26:53;100546.97;;;15.43;71.23
75497;BME280;64074;47.540;19.072;2023-05-14T12:30:05;100545.34;;;15.33;71.20
75497;BME280;64074;47.540;19.072;2023-05-14T12:33:19;100544.06;;;15.48;72.75
75497;BME280;64074;47.540;19.072;2023-05-14T12:36:26;100539.44;;;15.39;72.37
75497;BME280;64074;47.540;19.072;2023-05-14T12:39:32;100550.03;;;15.32;73.39
75497;BME280;64074;47.540;19.072;2023-05-14T12:42:36;100548.59;;;15.18;74.36
75497;BME280;64074;47.540;19.072;2023-05-14T12:45:46;100545.69;;;15.31;73.79
75497;BME280;64074;47.540;19.072;2023-05-14T12:48:57;100539.09;;;15.24;75.34
75497;BME280;64074;47.540;19.072;2023-05-14T12:52:11;100543.91;;;15.27;75.16
75497;BME280;64074;47.540;19.072;2023-05-14T12:55:20;100527.53;;;15.27;75.13
75497;BME280;64074;47.540;19.072;2023-05-14T12:58:24;100524.16;;;15.21;74.84
75497;BME280;64074;47.540;19.072;2023-05-14T13:01:33;100518.03;;;15.07;75.10
75497;BME280;64074;47.540;19.072;2023-05-14T13:04:58;100515.31;;;15.07;74.62
75497;BME280;64074;47.540;19.072;2023-05-14T13:08:24;100495.72;;;15.14;75.50
75497;BME280;64074;47.540;19.072;2023-05-14T13:11:34;100494.59;;;15.15;75.74
75497;BME280;64074;47.540;19.072;2023-05-14T13:14:55;100499.09;;;14.93;76.02
75497;BME280;64074;47.540;19.072;2023-05-14T13:18:17;100491.22;;;15.00;77.15
75497;BME280;64074;47.540;19.072;2023-05-14T13:21:26;100487.03;;;14.86;76.61
75497;BME280;64074;47.540;19.072;2023-05-14T13:24:31;100489.44;;;14.70;76.82
75497;BME280;64074;47.540;19.072;2023-05-14T13:27:35;100483.66;;;14.80;77.83
75497;BME280;64074;47.540;19.072;2023-05-14T13:31:10;100472.75;;;14.89;77.64
75497;BME280;64074;47.540;19.072;2023-05-14T13:34:22;100473.25;;;14.91;77.68
75497;BME280;64074;47.540;19.072;2023-05-14T13:37:31;100459.13;;;14.89;76.85
75497;BME280;64074;47.540;19.072;2023-05-14T13:41:00;100460.25;;;14.88;77.27
75497;BME280;64074;47.540;19.072;2023-05-14T13:44:11;100448.50;;;14.78;76.47
75497;BME280;64074;47.540;19.072;2023-05-14T13:47:22;100444.97;;;14.69;77.32
75497;BME280;64074;47.540;19.072;2023-05-14T13:50:31;100437.09;;;14.68;77.17
75497;BME280;64074;47.540;19.072;2023-05-14T13:53:35;100443.69;;;14.67;78.23
75497;BME280;64074;47.540;19.072;2023-05-14T13:56:39;100433.41;;;14.81;77.60
75497;BME280;64074;47.540;19.072;2023-05-14T13:59:49;100421.19;;;14.61;78.87
75497;BME280;64074;47.540;19.072;2023-05-14T14:02:59;100424.41;;;14.46;78.23
75497;BME280;64074;47.540;19.072;2023-05-14T14:06:09;100427.97;;;14.64;77.96
75497;BME280;64074;47.540;19.072;2023-05-14T14:09:32;100422.72;;;14.36;78.40
75497;BME280;64074;47.540;19.072;2023-05-14T14:12:43;100410.28;;;14.61;78.95
75497;BME280;64074;47.540;19.072;2023-05-14T14:15:47;100412.72;;;14.63;78.60
75497;BME280;64074;47.540;19.072;2023-05-14T14:18:57;100412.94;;;14.27;79.42
75497;BME280;64074;47.540;19.072;2023-05-14T14:22:17;100412.84;;;14.58;79.45
75497;BME280;64074;47.540;19.072;2023-05-14T14:25:20;100412.19;;;14.43;79.77
75497;BME280;64074;47.540;19.072;2023-05-14T14:28:27;100411.63;;;14.15;79.91
75497;BME280;64074;47.540;19.072;2023-05-14T14:31:37;100418.41;;;14.35;80.29
75497;BME280;64074;47.540;19.072;2023-05-14T14:34:54;100405.94;;;14.43;79.94
75497;BME280;64074;47.540;19.072;2023-05-14T14:38:14;100405.97;;;14.03;81.15
75497;BME280;64074;47.540;19.072;2023-05-14T14:41:18;100406.28;;;14.02;81.55
75497;BME280;64074;47.540;19.072;2023-05-14T14:44:27;100403.09;;;14.00;81.80
75497;BME280;64074;47.540;19.072;2023-05-14T14:47:35;100402.34;;;13.68;81.75
75497;BME280;64074;47.540;19.072;2023-05-14T14:50:38;100402.97;;;13.65;82.48
75497;BME280;64074;47.540;19.072;2023-05-14T14:53:47;100386.81;;;13.77;82.54
75497;BME280;64074;47.540;19.072;2023-05-14T14:56:56;100396.72;;;13.65;82.99
75497;BME280;64074;47.540;19.072;2023-05-14T15:00:12;100397.03;;;13.63;83.11
75497;BME280;64074;47.540;19.072;2023-05-14T15:03:26;100383.38;;;14.11;82.90
75497;BME280;64074;47.540;19.072;2023-05-14T15:06:37;100377.41;;;13.92;81.53
75497;BME280;64074;47.540;19.072;2023-05-14T15:09:46;100372.94;;;13.57;82.41
75497;BME280;64074;47.540;19.072;2023-05-14T15:12:57;100369.81;;;13.80;82.26
75497;BME280;64074;47.540;19.072;2023-05-14T15:16:21;100369.16;;;13.35;81.89
75497;BME280;64074;47.540;19.072;2023-05-14T15:19:37;100353.88;;;13.57;81.89
75497;BME280;64074;47.540;19.072;2023-05-14T15:23:08;100343.41;;;13.41;82.03
75497;BME280;64074;47.540;19.072;2023-05-14T15:26:34;100358.16;;;13.40;82.24
75497;BME280;64074;47.540;19.072;2023-05-14T15:29:46;100350.91;;;13.36;82.35
75497;BME280;64074;47.540;19.072;2023-05-14T15:32:55;100349.84;;;13.45;81.57
75497;BME280;64074;47.540;19.072;2023-05-14T15:36:31;100353.31;;;13.37;81.49
75497;BME280;64074;47.540;19.072;2023-05-14T15:39:51;100351.38;;;13.38;81.87
75497;BME280;64074;47.540;19.072;2023-05-14T15:43:02;100347.63;;;13.56;82.04
75497;BME280;64074;47.540;19.072;2023-05-14T15:46:06;100349.97;;;13.40;82.06
75497;BME280;64074;47.540;19.072;2023-05-14T15:49:16;100346.72;;;13.69;81.50
75497;BME280;64074;47.540;19.072;2023-05-14T15:52:37;100343.66;;;13.31;81.94
75497;BME280;64074;47.540;19.072;2023-05-14T15:55:59;100329.81;;;13.50;82.26
75497;BME280;64074;47.540;19.072;2023-05-14T15:59:03;100317.16;;;13.45;82.63
75497;BME280;64074;47.540;19.072;2023-05-14T16:02:06;100303.09;;;13.61;82.09
75497;BME280;64074;47.540;19.072;2023-05-14T16:05:12;100296.66;;;13.48;82.58
75497;BME280;64074;47.540;19.072;2023-05-14T16:08:23;100291.53;;;13.55;82.23
75497;BME280;64074;47.540;19.072;2023-05-14T16:11:39;100282.16;;;13.78;81.79
75497;BME280;64074;47.540;19.072;2023-05-14T16:15:10;100287.38;;;13.58;81.51
75497;BME280;64074;47.540;19.072;2023-05-14T16:18:20;100293.47;;;13.54;81.91
75497;BME280;64074;47.540;19.072;2023-05-14T16:21:32;100296.84;;;13.60;81.39
75497;BME280;64074;47.540;19.072;2023-05-14T16:24:36;100292.09;;;13.35;81.95
75497;BME280;64074;47.540;19.072;2023-05-14T16:27:46;100298.91;;;13.46;82.11
75497;BME280;64074;47.540;19.072;2023-05-14T16:31:06;100296.19;;;13.54;81.52
75497;BME280;64074;47.540;19.072;2023-05-14T16:34:24;100293.84;;;13.70;82.11
75497;BME280;64074;47.540;19.072;2023-05-14T16:37:50;100296.66;;;13.57;80.96
75497;BME280;64074;47.540;19.072;2023-05-14T16:40:53;100289.94;;;13.54;81.21
75497;BME280;64074;47.540;19.072;2023-05-14T16:44:00;100289.03;;;13.84;80.88
75497;BME280;64074;47.540;19.072;2023-05-14T16:47:10;100279.25;;;13.75;81.03
75497;BME280;64074;47.540;19.072;2023-05-14T16:50:17;100271.75;;;13.89;80.96
75497;BME280;64074;47.540;19.072;2023-05-14T16:53:22;100270.00;;;13.93;81.18
75497;BME280;64074;47.540;19.072;2023-05-14T16:56:31;100259.38;;;13.66;81.69
75497;BME280;64074;47.540;19.072;2023-05-14T16:59:48;100258.75;;;13.77;80.75
75497;BME280;64074;47.540;19.072;2023-05-14T17:03:16;100258.75;;;14.12;80.94
75497;BME280;64074;47.540;19.072;2023-05-14T17:06:30;100245.31;;;13.98;81.11
75497;BME280;64074;47.540;19.072;2023-05-14T17:09:34;100247.72;;;14.00;81.19
75497;BME280;64074;47.540;19.072;2023-05-14T17:12:38;100250.72;;;13.81;81.40
75497;BME280;64074;47.540;19.072;2023-05-14T17:15:42;100242.59;;;13.90;80.73
75497;BME280;64074;47.540;19.072;2023-05-14T17:18:46;100233.91;;;13.96;81.46
75497;BME280;64074;47.540;19.072;2023-05-14T17:21:56;100237.78;;;13.95;80.58